Time;durP1;ratioP1;P1;durP2;ratioP2;P2;SDS_P1;SDS_P2;PMS_P1;PMS_P2;Temp;Humidity;BMP_temperature;BMP_pressure;BME280_temperature;BME280_humidity;BME280_pressure;Samples;Min_cycle;Max_cycle;Signal;HPM_P1;HPM_P2
2023/04/06 00:00:31;;;;;;;27.10;23.57;;;;;19.20;100717.00;;;;2095890;28;20686;-66
2023/04/06 00:01:31;;;;;;;28.17;22.97;;;;;19.20;100720.00;;;;2095151;28;20227;-66
2023/04/06 00:02:31;;;;;;;26.90;22.77;;;;;19.20;100723.00;;;;2096153;28;20269;-66
2023/04/06 00:03:32;;;;;;;28.73;22.40;;;;;19.20;100714.00;;;;2096240;28;20215;-67
2023/04/06 00:04:32;;;;;;;24.37;21.30;;;;;19.20;100717.00;;;;2095159;28;20212;-66
2023/04/06 00:05:32;;;;;;;25.40;21.03;;;;;19.10;100718.00;;;;2096134;28;20219;-66
2023/04/06 00:06:33;;;;;;;23.50;19.33;;;;;19.10;100714.00;;;;2095092;28;20216;-66
2023/04/06 00:07:33;;;;;;;23.70;19.87;;;;;19.10;100710.00;;;;2095874;28;20243;-66
2023/04/06 00:08:34;;;;;;;23.43;18.67;;;;;19.20;100716.00;;;;2095797;28;20219;-67
2023/04/06 00:09:34;;;;;;;21.80;19.40;;;;;19.20;100714.00;;;;2098849;28;20207;-66
2023/04/06 00:10:35;;;;;;;19.83;17.20;;;;;19.10;100716.00;;;;2096182;28;20239;-66
2023/04/06 00:11:35;;;;;;;21.90;18.10;;;;;19.10;100717.00;;;;2095128;28;21141;-66
2023/04/06 00:12:35;;;;;;;21.23;17.27;;;;;19.10;100720.00;;;;2095774;28;20223;-66
2023/04/06 00:13:36;;;;;;;20.50;18.00;;;;;19.10;100709.00;;;;2095729;28;20223;-66
2023/04/06 00:14:36;;;;;;;20.07;16.17;;;;;19.10;100705.00;;;;2095477;28;20297;-66
2023/04/06 00:15:36;;;;;;;19.97;16.37;;;;;19.10;100711.00;;;;2096046;28;20216;-66
2023/04/06 00:16:37;;;;;;;19.33;16.70;;;;;19.10;100699.00;;;;2095389;28;20224;-66
2023/04/06 00:17:37;;;;;;;17.07;15.20;;;;;19.10;100705.00;;;;2095886;28;20215;-66
2023/04/06 00:18:38;;;;;;;16.20;14.30;;;;;19.10;100706.00;;;;2095128;28;20226;-66
2023/04/06 00:19:38;;;;;;;15.98;14.05;;;;;19.10;100693.00;;;;2095775;28;20247;-66
2023/04/06 00:20:40;;;;;;;17.60;14.80;;;;;19.00;100689.00;;;;2095939;28;20679;-67
2023/04/06 00:21:40;;;;;;;15.82;14.13;;;;;19.00;100704.00;;;;2095272;28;20621;-67
2023/04/06 00:22:40;;;;;;;18.60;14.47;;;;;19.10;100693.00;;;;2095952;28;20241;-67
2023/04/06 00:23:41;;;;;;;18.20;13.17;;;;;19.00;100700.00;;;;2094960;28;20211;-67
2023/04/06 00:24:41;;;;;;;17.23;14.27;;;;;19.10;100701.00;;;;2095902;28;20575;-67
2023/04/06 00:25:42;;;;;;;17.20;13.00;;;;;19.00;100703.00;;;;2095256;28;20220;-66
2023/04/06 00:26:42;;;;;;;14.20;12.63;;;;;19.00;100691.00;;;;2096050;28;20208;-66
2023/04/06 00:27:42;;;;;;;15.53;12.80;;;;;19.00;100698.00;;;;2095544;28;20238;-67
2023/04/06 00:28:43;;;;;;;15.00;12.10;;;;;19.10;100708.00;;;;2094864;28;20224;-66
2023/04/06 00:29:43;;;;;;;13.77;12.27;;;;;19.10;100692.00;;;;2095045;28;20682;-67
2023/04/06 00:30:44;;;;;;;14.23;11.90;;;;;19.00;100687.00;;;;2097980;28;20587;-66
2023/04/06 00:31:44;;;;;;;15.27;12.60;;;;;19.00;100697.00;;;;2095610;28;20588;-67
2023/04/06 00:32:45;;;;;;;18.00;12.27;;;;;19.00;100691.00;;;;2095254;28;20238;-66
2023/04/06 00:33:45;;;;;;;13.00;11.07;;;;;19.00;100692.00;;;;2096112;28;20222;-67
2023/04/06 00:34:45;;;;;;;12.60;10.70;;;;;19.00;100694.00;;;;2095028;28;20227;-66
2023/04/06 00:35:46;;;;;;;12.27;10.97;;;;;19.00;100688.00;;;;2095803;28;20229;-67
2023/04/06 00:36:46;;;;;;;13.47;11.30;;;;;19.00;100691.00;;;;2095866;28;20223;-67
2023/04/06 00:37:47;;;;;;;16.00;11.50;;;;;19.00;100695.00;;;;2094883;28;21902;-68
2023/04/06 00:38:48;;;;;;;10.55;9.30;;;;;19.00;100678.00;;;;2095949;28;20228;-66
2023/04/06 00:39:48;;;;;;;11.70;9.67;;;;;19.00;100691.00;;;;2094859;28;20208;-66
2023/04/06 00:40:48;;;;;;;12.23;9.80;;;;;19.00;100684.00;;;;2095998;28;20614;-66
2023/04/06 00:41:50;;;;;;;12.10;10.47;;;;;18.90;100684.00;;;;2093964;28;20719;-66
2023/04/06 00:42:51;;;;;;;11.25;10.05;;;;;18.90;100686.00;;;;2086831;28;20208;-67
2023/04/06 00:43:51;;;;;;;9.90;9.00;;;;;19.00;100662.00;;;;2094953;28;20239;-67
2023/04/06 00:44:55;;;;;;;10.40;9.30;;;;;19.00;100680.00;;;;2095040;28;20212;-67
2023/04/06 00:45:55;;;;;;;10.90;8.98;;;;;18.90;100680.00;;;;2094953;28;20602;-67
2023/04/06 00:46:55;;;;;;;10.43;9.30;;;;;19.00;100683.00;;;;2086031;28;20224;-67
2023/04/06 00:47:56;;;;;;;13.40;10.13;;;;;18.90;100683.00;;;;2086876;28;20776;-66
2023/04/06 00:48:56;;;;;;;9.83;8.90;;;;;18.90;100682.00;;;;2086824;28;20220;-66
2023/04/06 00:49:56;;;;;;;9.40;8.40;;;;;18.90;100636.00;;;;2096670;28;20275;-66
2023/04/06 00:50:57;;;;;;;9.40;8.50;;;;;18.90;100674.00;;;;2094879;28;20208;-67
2023/04/06 00:51:57;;;;;;;9.73;8.73;;;;;19.00;100675.00;;;;2093918;28;21043;-66
2023/04/06 00:52:58;;;;;;;10.10;8.50;;;;;19.00;100647.00;;;;2095935;28;20766;-66
2023/04/06 00:53:59;;;;;;;9.57;8.57;;;;;19.00;100599.00;;;;2095305;28;20223;-67
2023/04/06 00:54:59;;;;;;;9.87;8.87;;;;;19.00;100660.00;;;;2095949;28;20488;-67
2023/04/06 00:56:00;;;;;;;9.23;7.87;;;;;18.90;100672.00;;;;2094653;28;20219;-66
2023/04/06 00:57:00;;;;;;;11.90;9.00;;;;;18.90;100674.00;;;;2095224;28;20216;-66
2023/04/06 00:58:01;;;;;;;9.67;8.57;;;;;18.90;100560.00;;;;2095804;28;20324;-66
2023/04/06 00:59:01;;;;;;;9.33;7.93;;;;;18.90;100655.00;;;;2099617;28;20223;-67
2023/04/06 01:00:02;;;;;;;9.80;8.40;;;;;18.90;100674.00;;;;2095233;28;20305;-66
2023/04/06 01:01:02;;;;;;;8.60;7.70;;;;;18.90;100662.00;;;;2094089;28;21047;-66
2023/04/06 01:02:02;;;;;;;8.37;7.57;;;;;18.90;100658.00;;;;2094986;28;20544;-66
2023/04/06 01:03:05;;;;;;;9.93;8.20;;;;;18.90;100663.00;;;;2095162;28;20215;-66
2023/04/06 01:04:06;;;;;;;8.00;7.25;;;;;18.90;100663.00;;;;2094518;28;20203;-66
2023/04/06 01:05:06;;;;;;;9.63;7.97;;;;;18.90;100658.00;;;;2095875;28;20352;-67
2023/04/06 01:06:07;;;;;;;8.00;7.20;;;;;18.90;100647.00;;;;2095148;28;20227;-67
2023/04/06 01:07:07;;;;;;;8.20;7.40;;;;;18.90;100666.00;;;;2094122;28;20219;-66
2023/04/06 01:08:07;;;;;;;9.17;7.57;;;;;18.90;100651.00;;;;2095400;28;20211;-66
2023/04/06 01:09:08;;;;;;;9.50;7.20;;;;;18.90;100658.00;;;;2095437;28;20660;-66
2023/04/06 01:10:08;;;;;;;8.43;7.57;;;;;18.90;100655.00;;;;2095743;28;20218;-66
2023/04/06 01:11:09;;;;;;;8.50;7.60;;;;;18.90;100655.00;;;;2095182;28;20212;-67
2023/04/06 01:12:09;;;;;;;7.90;6.60;;;;;18.90;100655.00;;;;2095859;28;20693;-66
2023/04/06 01:13:10;;;;;;;9.53;7.30;;;;;18.90;100657.00;;;;2097447;28;20218;-66
2023/04/06 01:14:10;;;;;;;7.90;6.97;;;;;18.90;100655.00;;;;2096696;28;20216;-66
2023/04/06 01:15:10;;;;;;;7.93;7.10;;;;;18.90;100649.00;;;;2097727;28;20208;-66
2023/04/06 01:16:11;;;;;;;9.00;7.07;;;;;18.90;100650.00;;;;2096126;28;20757;-66
2023/04/06 01:17:11;;;;;;;7.00;6.30;;;;;18.90;100648.00;;;;2097048;28;20600;-67
2023/04/06 01:18:11;;;;;;;8.17;7.33;;;;;18.90;100656.00;;;;2096914;28;20675;-66
2023/04/06 01:19:12;;;;;;;8.60;6.60;;;;;18.90;100647.00;;;;2097519;28;20216;-66
2023/04/06 01:20:12;;;;;;;7.20;6.50;;;;;18.90;100649.00;;;;2097411;28;20690;-66
2023/04/06 01:21:15;;;;;;;6.33;5.73;;;;;18.90;100642.00;;;;2096374;28;20220;-66
2023/04/06 01:22:16;;;;;;;7.80;6.80;;;;;18.80;100640.00;;;;2096641;28;20255;-66
2023/04/06 01:23:16;;;;;;;7.22;6.45;;;;;18.80;100635.00;;;;2087834;28;20318;-66
2023/04/06 01:24:17;;;;;;;7.83;6.70;;;;;18.80;100635.00;;;;2096682;28;20224;-66
2023/04/06 01:25:17;;;;;;;11.93;6.97;;;;;18.80;100647.00;;;;2096627;28;20246;-66
2023/04/06 01:26:17;;;;;;;7.87;6.40;;;;;18.80;100638.00;;;;2097047;28;20280;-68
2023/04/06 01:27:18;;;;;;;6.50;5.83;;;;;18.80;100643.00;;;;2097462;28;20228;-68
2023/04/06 01:28:18;;;;;;;8.00;6.70;;;;;18.80;100644.00;;;;2096480;28;20216;-66
2023/04/06 01:29:18;;;;;;;6.80;6.20;;;;;18.80;100637.00;;;;2097267;28;20218;-67
2023/04/06 01:30:19;;;;;;;7.13;6.07;;;;;18.80;100628.00;;;;2096514;28;20215;-66
2023/04/06 01:31:20;;;;;;;7.00;5.90;;;;;18.80;100634.00;;;;2096645;28;20220;-66
2023/04/06 01:32:20;;;;;;;7.57;6.27;;;;;18.80;100633.00;;;;2095893;28;20703;-67
2023/04/06 01:33:20;;;;;;;7.20;6.17;;;;;18.80;100635.00;;;;2101764;28;20581;-67
2023/04/06 01:34:21;;;;;;;7.00;6.30;;;;;18.80;100632.00;;;;2097392;28;20508;-67
2023/04/06 01:35:21;;;;;;;6.57;5.93;;;;;18.80;100635.00;;;;2096166;28;20220;-67
2023/04/06 01:36:22;;;;;;;6.43;5.83;;;;;18.80;100628.00;;;;2097299;28;20230;-66
2023/04/06 01:37:22;;;;;;;6.60;6.00;;;;;18.80;100625.00;;;;2096572;28;20220;-66
2023/04/06 01:38:22;;;;;;;7.83;6.37;;;;;18.80;100630.00;;;;2097064;28;20246;-67
2023/04/06 01:39:22;;;;;;;7.87;7.00;;;;;18.80;100626.00;;;;2096313;28;20223;-66
2023/04/06 01:40:23;;;;;;;6.53;5.93;;;;;18.80;100590.00;;;;2096912;28;20239;-67
2023/04/06 01:41:23;;;;;;;6.80;6.20;;;;;18.40;100627.00;;;;2097049;28;20230;-66
2023/04/06 01:42:23;;;;;;;6.53;5.93;;;;;18.80;100629.00;;;;2096094;28;20222;-66
2023/04/06 01:43:24;;;;;;;6.60;5.90;;;;;18.80;100624.00;;;;2097211;28;20251;-67
2023/04/06 01:44:25;;;;;;;6.57;5.97;;;;;18.80;100634.00;;;;2096754;28;20207;-67
2023/04/06 01:45:25;;;;;;;6.80;6.20;;;;;18.80;100625.00;;;;2096447;28;20242;-66
2023/04/06 01:46:26;;;;;;;6.90;6.20;;;;;18.80;100628.00;;;;2095662;28;20215;-66
2023/04/06 01:47:26;;;;;;;6.70;6.03;;;;;18.80;100629.00;;;;2097239;28;20465;-66
2023/04/06 01:48:27;;;;;;;6.73;6.13;;;;;18.80;100622.00;;;;2097269;28;20287;-66
2023/04/06 01:49:27;;;;;;;6.67;5.73;;;;;18.80;100624.00;;;;2100635;28;20223;-66
2023/04/06 01:50:27;;;;;;;7.30;6.60;;;;;18.80;100627.00;;;;2097258;28;20691;-66
2023/04/06 01:51:28;;;;;;;5.80;5.30;;;;;18.80;100624.00;;;;2095894;28;20231;-66
2023/04/06 01:52:28;;;;;;;5.53;5.03;;;;;18.80;100620.00;;;;2096822;28;20224;-67
2023/04/06 01:53:29;;;;;;;6.13;5.50;;;;;18.70;100627.00;;;;2095976;28;20598;-66
2023/04/06 01:54:29;;;;;;;7.10;5.87;;;;;18.70;100610.00;;;;2097358;28;20829;-66
2023/04/06 01:55:30;;;;;;;6.43;5.83;;;;;18.70;100622.00;;;;2097188;28;20215;-67
2023/04/06 01:56:30;;;;;;;6.33;5.53;;;;;18.70;100601.00;;;;2096632;28;20247;-66
2023/04/06 01:57:30;;;;;;;6.33;5.60;;;;;18.80;100594.00;;;;2097214;28;20241;-66
2023/04/06 01:58:31;;;;;;;5.87;5.37;;;;;18.70;100622.00;;;;2096276;28;20579;-66
2023/04/06 01:59:31;;;;;;;6.50;5.90;;;;;18.70;100623.00;;;;2097165;28;20211;-67
2023/04/06 02:00:31;;;;;;;5.87;5.37;;;;;18.70;100623.00;;;;2096959;28;20721;-67
2023/04/06 02:01:32;;;;;;;5.07;4.57;;;;;18.70;100619.00;;;;2096593;28;20224;-66
2023/04/06 02:02:32;;;;;;;5.50;5.00;;;;;18.70;100625.00;;;;2097120;28;20681;-66
2023/04/06 02:03:33;;;;;;;5.83;5.33;;;;;18.70;100618.00;;;;2097250;28;20563;-66
2023/04/06 02:04:33;;;;;;;6.03;5.43;;;;;18.70;100620.00;;;;2096241;28;20568;-66
2023/04/06 02:05:37;;;;;;;6.00;5.40;;;;;18.70;100624.00;;;;2097282;28;20215;-66
2023/04/06 02:06:37;;;;;;;6.05;5.45;;;;;18.70;100614.00;;;;2096279;28;20211;-66
2023/04/06 02:07:38;;;;;;;6.40;5.80;;;;;18.70;100623.00;;;;2097048;28;20276;-67
2023/04/06 02:08:38;;;;;;;6.27;5.67;;;;;18.70;100621.00;;;;2096095;28;20226;-66
2023/04/06 02:09:39;;;;;;;5.50;5.00;;;;;18.70;100623.00;;;;2095838;28;20248;-67
2023/04/06 02:10:39;;;;;;;7.13;5.57;;;;;18.70;100624.00;;;;2096963;28;20213;-66
2023/04/06 02:11:40;;;;;;;6.30;5.40;;;;;18.70;100623.00;;;;2099984;28;20215;-67
2023/04/06 02:12:40;;;;;;;5.87;5.37;;;;;18.70;100621.00;;;;2098688;28;20238;-66
2023/04/06 02:13:40;;;;;;;6.37;5.33;;;;;18.70;100623.00;;;;2096227;28;20675;-66
2023/04/06 02:14:41;;;;;;;5.80;5.20;;;;;18.70;100604.00;;;;2097044;28;20216;-67
2023/04/06 02:15:41;;;;;;;6.23;5.63;;;;;18.70;100622.00;;;;2097004;28;20217;-66
2023/04/06 02:16:41;;;;;;;6.07;5.40;;;;;18.70;100623.00;;;;2102958;28;20202;-66
2023/04/06 02:17:42;;;;;;;6.97;6.10;;;;;18.70;100623.00;;;;2096981;28;20231;-66
2023/04/06 02:18:42;;;;;;;6.43;5.83;;;;;18.60;100628.00;;;;2095283;28;20254;-66
2023/04/06 02:19:42;;;;;;;9.87;6.37;;;;;18.70;100621.00;;;;2096211;28;20222;-66
2023/04/06 02:20:43;;;;;;;5.40;4.90;;;;;18.60;100608.00;;;;2095633;28;20226;-67
2023/04/06 02:21:43;;;;;;;6.20;5.30;;;;;18.70;100620.00;;;;2096546;28;20218;-67
2023/04/06 02:22:43;;;;;;;6.67;5.97;;;;;18.70;100612.00;;;;2097168;28;20213;-66
2023/04/06 02:23:44;;;;;;;6.00;5.27;;;;;18.70;100604.00;;;;2095000;28;20212;-66
2023/04/06 02:24:45;;;;;;;5.67;5.07;;;;;18.60;100616.00;;;;2096776;28;20247;-66
2023/04/06 02:25:45;;;;;;;6.03;5.43;;;;;18.70;100623.00;;;;2098781;28;20272;-66
2023/04/06 02:26:46;;;;;;;5.90;5.40;;;;;18.60;100618.00;;;;2102677;28;20824;-66
2023/04/06 02:27:46;;;;;;;6.20;5.60;;;;;18.60;100618.00;;;;2096229;28;20272;-66
2023/04/06 02:28:46;;;;;;;6.20;5.60;;;;;18.60;100616.00;;;;2096815;28;20224;-67
2023/04/06 02:29:47;;;;;;;5.93;5.40;;;;;18.60;100614.00;;;;2097117;28;20228;-66
2023/04/06 02:30:47;;;;;;;5.67;5.17;;;;;18.60;100616.00;;;;2096067;28;20215;-67
2023/04/06 02:31:47;;;;;;;5.73;5.23;;;;;18.70;100610.00;;;;2096745;28;20219;-66
2023/04/06 02:32:48;;;;;;;5.63;5.03;;;;;18.60;100601.00;;;;2096063;28;20710;-66
2023/04/06 02:33:48;;;;;;;5.23;4.80;;;;;18.60;100581.00;;;;2096959;28;20703;-66
2023/04/06 02:34:48;;;;;;;5.03;4.63;;;;;18.60;100613.00;;;;2096233;28;20217;-66
2023/04/06 02:35:49;;;;;;;5.23;4.83;;;;;18.60;100604.00;;;;2095978;28;21709;-67
2023/04/06 02:36:49;;;;;;;5.43;4.93;;;;;18.60;100611.00;;;;2096997;28;20217;-67
2023/04/06 02:37:49;;;;;;;5.03;4.47;;;;;18.60;100609.00;;;;2101292;28;20211;-68
2023/04/06 02:38:50;;;;;;;6.07;4.73;;;;;18.60;100578.00;;;;2096101;28;20241;-67
2023/04/06 02:39:50;;;;;;;6.00;5.40;;;;;18.60;100604.00;;;;2095515;28;20739;-67
2023/04/06 02:40:50;;;;;;;5.80;5.20;;;;;18.60;100612.00;;;;2096844;28;20695;-66
2023/04/06 02:41:51;;;;;;;5.10;4.70;;;;;18.60;100603.00;;;;2095637;28;20242;-67
2023/04/06 02:42:51;;;;;;;6.13;5.53;;;;;18.60;100610.00;;;;2095989;28;20258;-67
2023/04/06 02:43:51;;;;;;;5.60;5.00;;;;;18.60;100603.00;;;;2095901;28;20226;-66
2023/04/06 02:44:52;;;;;;;5.17;4.57;;;;;18.60;100602.00;;;;2095500;28;20204;-66
2023/04/06 02:45:52;;;;;;;5.77;5.27;;;;;18.60;100602.00;;;;2096542;28;20294;-67
2023/04/06 02:46:52;;;;;;;5.50;5.00;;;;;18.60;100602.00;;;;2095669;28;20208;-66
2023/04/06 02:47:53;;;;;;;6.00;5.17;;;;;18.60;100602.00;;;;2096663;28;20253;-66
2023/04/06 02:48:53;;;;;;;5.57;5.00;;;;;18.60;100604.00;;;;2095860;28;20203;-66
2023/04/06 02:49:53;;;;;;;5.20;4.70;;;;;18.60;100597.00;;;;2096653;28;20207;-66
2023/04/06 02:50:54;;;;;;;5.70;5.20;;;;;18.50;100602.00;;;;2096633;28;20208;-66
2023/04/06 02:51:54;;;;;;;7.07;5.43;;;;;18.60;100603.00;;;;2095406;28;20219;-66
2023/04/06 02:52:55;;;;;;;5.83;5.23;;;;;18.60;100602.00;;;;2096543;28;20211;-66
2023/04/06 02:53:55;;;;;;;5.53;5.03;;;;;18.60;100603.00;;;;2095739;28;20222;-66
2023/04/06 02:54:55;;;;;;;6.60;5.30;;;;;18.60;100594.00;;;;2096343;28;20263;-66
2023/04/06 02:55:56;;;;;;;5.63;5.03;;;;;18.60;100598.00;;;;2095880;28;20219;-66
2023/04/06 02:56:56;;;;;;;5.53;4.90;;;;;18.50;100599.00;;;;2096582;28;20235;-66
2023/04/06 02:57:56;;;;;;;5.53;4.93;;;;;18.50;100600.00;;;;2096545;28;20211;-66
2023/04/06 02:58:57;;;;;;;5.93;5.33;;;;;18.60;100599.00;;;;2095493;28;20223;-66
2023/04/06 02:59:57;;;;;;;5.57;5.07;;;;;18.60;100603.00;;;;2096793;28;20231;-66
2023/04/06 03:00:57;;;;;;;5.50;5.00;;;;;18.60;100595.00;;;;2095810;28;20205;-66
2023/04/06 03:01:58;;;;;;;5.17;4.67;;;;;18.50;100581.00;;;;2096430;28;20200;-67
2023/04/06 03:02:58;;;;;;;6.60;5.60;;;;;18.50;100599.00;;;;2095971;28;20278;-66
2023/04/06 03:03:58;;;;;;;6.50;5.63;;;;;18.50;100595.00;;;;2096534;28;20211;-66
2023/04/06 03:04:59;;;;;;;5.40;4.90;;;;;18.50;100586.00;;;;2096723;28;20268;-67
2023/04/06 03:06:00;;;;;;;5.27;4.77;;;;;18.60;100591.00;;;;2095665;28;20548;-66
2023/04/06 03:07:00;;;;;;;5.50;5.03;;;;;18.50;100594.00;;;;2094694;28;20254;-66
2023/04/06 03:08:00;;;;;;;5.37;4.87;;;;;18.50;100593.00;;;;2095600;28;20706;-66
2023/04/06 03:09:01;;;;;;;5.23;4.73;;;;;18.50;100574.00;;;;2095710;28;20206;-66
2023/04/06 03:10:02;;;;;;;6.25;5.28;;;;;18.50;100586.00;;;;2095553;28;20215;-66
2023/04/06 03:11:02;;;;;;;5.30;4.83;;;;;18.50;100586.00;;;;2095394;28;20666;-66
2023/04/06 03:12:03;;;;;;;6.07;5.03;;;;;18.50;100579.00;;;;2095921;28;20212;-66
2023/04/06 03:13:03;;;;;;;4.90;4.40;;;;;18.50;100597.00;;;;2095704;28;20220;-66
2023/04/06 03:14:03;;;;;;;5.53;5.03;;;;;18.50;100579.00;;;;2096491;28;20216;-66
2023/04/06 03:15:04;;;;;;;5.40;4.97;;;;;18.50;100590.00;;;;2095559;28;20218;-66
2023/04/06 03:16:05;;;;;;;5.30;4.80;;;;;18.50;100591.00;;;;2095706;28;20294;-66
2023/04/06 03:17:05;;;;;;;5.60;5.00;;;;;18.50;100609.00;;;;2095404;28;21024;-66
2023/04/06 03:18:05;;;;;;;5.80;4.97;;;;;18.50;100582.00;;;;2096757;28;20855;-67
2023/04/06 03:19:06;;;;;;;5.33;4.83;;;;;18.50;100591.00;;;;2095712;28;20741;-66
2023/04/06 03:20:06;;;;;;;5.90;5.00;;;;;18.50;100591.00;;;;2095391;28;20724;-66
2023/04/06 03:21:07;;;;;;;5.53;4.93;;;;;18.50;100586.00;;;;2096442;28;20661;-66
2023/04/06 03:22:07;;;;;;;5.23;4.73;;;;;18.50;100591.00;;;;2095638;28;21039;-66
2023/04/06 03:23:08;;;;;;;4.90;4.50;;;;;18.50;100594.00;;;;2096504;28;20628;-66
2023/04/06 03:24:08;;;;;;;4.80;4.40;;;;;18.50;100583.00;;;;2096693;28;20212;-66
2023/04/06 03:25:08;;;;;;;5.17;4.70;;;;;18.50;100587.00;;;;2095457;28;20235;-66
2023/04/06 03:26:09;;;;;;;5.80;5.30;;;;;18.50;100590.00;;;;2096317;28;20211;-67
2023/04/06 03:27:10;;;;;;;5.13;4.70;;;;;18.10;100586.00;;;;2099176;28;20230;-66
2023/04/06 03:28:10;;;;;;;5.13;4.70;;;;;18.50;100583.00;;;;2096731;28;20246;-66
2023/04/06 03:29:10;;;;;;;5.10;4.60;;;;;18.50;100579.00;;;;2095761;28;20223;-66
2023/04/06 03:30:11;;;;;;;5.13;4.40;;;;;18.50;100578.00;;;;2096656;28;20215;-66
2023/04/06 03:31:11;;;;;;;5.50;4.80;;;;;18.50;100579.00;;;;2096118;28;20235;-66
2023/04/06 03:32:12;;;;;;;5.47;4.90;;;;;18.50;100588.00;;;;2095450;28;20666;-67
2023/04/06 03:33:12;;;;;;;5.90;5.40;;;;;18.50;100593.00;;;;2096378;28;20701;-66
2023/04/06 03:34:12;;;;;;;5.23;4.77;;;;;18.50;100590.00;;;;2095770;28;20688;-66
2023/04/06 03:35:13;;;;;;;4.93;4.50;;;;;18.50;100592.00;;;;2095978;28;20223;-66
2023/04/06 03:36:13;;;;;;;5.70;5.20;;;;;18.40;100583.00;;;;2095631;28;20247;-66
2023/04/06 03:37:13;;;;;;;5.17;4.67;;;;;18.40;100595.00;;;;2095986;28;20220;-66
2023/04/06 03:38:14;;;;;;;5.67;5.17;;;;;18.50;100587.00;;;;2096414;28;20259;-66
2023/04/06 03:39:14;;;;;;;5.37;4.87;;;;;18.40;100589.00;;;;2102046;28;20292;-66
2023/04/06 03:40:15;;;;;;;5.53;4.97;;;;;18.40;100588.00;;;;2097503;28;20292;-66
2023/04/06 03:41:15;;;;;;;4.70;4.30;;;;;18.40;100596.00;;;;2095502;28;20574;-67
2023/04/06 03:42:15;;;;;;;5.53;4.80;;;;;18.40;100593.00;;;;2096052;28;20223;-66
2023/04/06 03:43:16;;;;;;;5.60;4.70;;;;;18.40;100595.00;;;;2095411;28;20585;-66
2023/04/06 03:44:16;;;;;;;5.33;4.87;;;;;18.40;100600.00;;;;2096462;28;20625;-66
2023/04/06 03:45:17;;;;;;;5.70;5.20;;;;;18.40;100597.00;;;;2096138;28;20243;-66
2023/04/06 03:46:17;;;;;;;5.40;4.63;;;;;18.40;100600.00;;;;2098241;28;20685;-67
2023/04/06 03:47:17;;;;;;;5.20;4.70;;;;;18.40;100593.00;;;;2096325;28;20231;-66
2023/04/06 03:48:17;;;;;;;5.20;4.70;;;;;18.40;100590.00;;;;2095075;28;20247;-66
2023/04/06 03:49:18;;;;;;;5.40;4.97;;;;;18.40;100596.00;;;;2096354;28;20384;-67
2023/04/06 03:50:18;;;;;;;5.60;5.10;;;;;18.40;100589.00;;;;2096542;28;20231;-66
2023/04/06 03:51:19;;;;;;;4.50;4.10;;;;;18.40;100598.00;;;;2095972;28;20223;-65
2023/04/06 03:52:19;;;;;;;6.57;5.10;;;;;18.40;100596.00;;;;2095701;28;20231;-66
2023/04/06 03:53:19;;;;;;;5.23;4.73;;;;;18.40;100594.00;;;;2095337;28;20733;-66
2023/04/06 03:54:20;;;;;;;5.37;4.93;;;;;18.40;100599.00;;;;2096315;28;20298;-66
2023/04/06 03:55:20;;;;;;;5.37;4.87;;;;;18.40;100601.00;;;;2092459;28;20740;-68
2023/04/06 03:56:20;;;;;;;4.57;4.17;;;;;18.40;100592.00;;;;2104002;28;20731;-67
2023/04/06 03:57:21;;;;;;;6.00;5.10;;;;;18.40;100605.00;;;;2095682;28;20706;-67
2023/04/06 03:58:21;;;;;;;5.00;4.60;;;;;18.30;100596.00;;;;2096024;28;20218;-67
2023/04/06 03:59:21;;;;;;;6.03;4.97;;;;;18.40;100595.00;;;;2096242;28;20239;-66
2023/04/06 04:00:22;;;;;;;5.13;4.63;;;;;18.40;100581.00;;;;2095623;28;20243;-67
2023/04/06 04:01:22;;;;;;;5.53;4.60;;;;;18.40;100591.00;;;;2095837;28;20220;-67
2023/04/06 04:02:23;;;;;;;5.50;4.97;;;;;18.40;100588.00;;;;2095139;28;20218;-67
2023/04/06 04:03:25;;;;;;;5.63;4.97;;;;;18.40;100589.00;;;;2096387;28;20273;-66
2023/04/06 04:04:26;;;;;;;4.90;4.50;;;;;18.40;100580.00;;;;2095508;28;20302;-66
2023/04/06 04:05:26;;;;;;;5.23;4.73;;;;;18.40;100591.00;;;;2096065;28;20219;-66
2023/04/06 04:06:26;;;;;;;5.50;4.93;;;;;18.40;100589.00;;;;2096006;28;20243;-66
2023/04/06 04:07:27;;;;;;;5.80;4.50;;;;;18.40;100591.00;;;;2095445;28;20215;-66
2023/04/06 04:08:27;;;;;;;5.30;4.67;;;;;18.30;100595.00;;;;2096324;28;20694;-66
2023/04/06 04:09:27;;;;;;;5.30;4.80;;;;;18.30;100589.00;;;;2095319;28;20716;-67
2023/04/06 04:10:28;;;;;;;5.10;4.60;;;;;18.30;100603.00;;;;2096137;28;20721;-66
2023/04/06 04:11:28;;;;;;;5.97;5.07;;;;;18.30;100613.00;;;;2095328;28;20208;-66
2023/04/06 04:12:28;;;;;;;5.00;4.60;;;;;18.30;100595.00;;;;2096119;28;20568;-66
2023/04/06 04:13:29;;;;;;;5.17;4.70;;;;;18.40;100592.00;;;;2095762;28;20583;-66
2023/04/06 04:14:29;;;;;;;4.93;4.53;;;;;18.40;100593.00;;;;2095481;28;20294;-67
2023/04/06 04:15:30;;;;;;;5.53;5.00;;;;;18.40;100594.00;;;;2093852;28;20215;-66
2023/04/06 04:16:30;;;;;;;5.57;5.07;;;;;18.40;100598.00;;;;2095477;28;20687;-66
2023/04/06 04:17:30;;;;;;;4.67;4.30;;;;;18.40;100598.00;;;;2096073;28;20717;-66
2023/04/06 04:18:31;;;;;;;4.70;4.30;;;;;18.40;100590.00;;;;2095523;28;20215;-67
2023/04/06 04:19:31;;;;;;;5.00;4.50;;;;;18.40;100593.00;;;;2096353;28;20349;-66
2023/04/06 04:20:31;;;;;;;5.90;5.30;;;;;18.40;100587.00;;;;2096103;28;20218;-67
2023/04/06 04:21:32;;;;;;;4.83;4.43;;;;;18.30;100593.00;;;;2094860;28;20219;-66
2023/04/06 04:22:32;;;;;;;5.00;4.47;;;;;18.30;100599.00;;;;2095998;28;20879;-66
2023/04/06 04:23:32;;;;;;;4.90;4.50;;;;;18.30;100595.00;;;;2094588;28;20757;-67
2023/04/06 04:24:33;;;;;;;5.67;5.07;;;;;18.30;100595.00;;;;2095546;28;20207;-66
2023/04/06 04:25:33;;;;;;;5.13;4.63;;;;;18.30;100591.00;;;;2095559;28;20268;-66
2023/04/06 04:26:34;;;;;;;4.77;4.33;;;;;18.30;100592.00;;;;2096113;28;20208;-66
2023/04/06 04:27:34;;;;;;;5.30;4.80;;;;;18.30;100592.00;;;;2095874;28;20214;-66
2023/04/06 04:28:35;;;;;;;5.00;4.47;;;;;18.30;100621.00;;;;2095395;28;20281;-66
2023/04/06 04:29:35;;;;;;;5.13;4.63;;;;;18.30;100581.00;;;;2096231;28;20261;-66
2023/04/06 04:30:35;;;;;;;6.97;4.70;;;;;18.30;100593.00;;;;2095346;28;20208;-66
2023/04/06 04:31:36;;;;;;;6.50;4.97;;;;;18.30;100590.00;;;;2095904;28;20587;-66
2023/04/06 04:32:36;;;;;;;5.10;4.60;;;;;18.30;100589.00;;;;2095339;28;20590;-66
2023/04/06 04:33:36;;;;;;;5.77;5.20;;;;;18.30;100595.00;;;;2095426;28;20721;-66
2023/04/06 04:34:39;;;;;;;5.03;4.53;;;;;18.30;100579.00;;;;2095596;28;20694;-66
2023/04/06 04:35:40;;;;;;;5.60;4.40;;;;;18.30;100583.00;;;;2096083;28;20256;-67
2023/04/06 04:36:41;;;;;;;4.87;4.37;;;;;18.30;100582.00;;;;2096201;28;20649;-66
2023/04/06 04:37:42;;;;;;;5.07;4.57;;;;;18.30;100589.00;;;;2095092;28;20230;-67
2023/04/06 04:38:42;;;;;;;5.47;4.97;;;;;18.30;100590.00;;;;2095835;28;20227;-66
2023/04/06 04:39:42;;;;;;;5.23;4.83;;;;;18.30;100587.00;;;;2097835;28;20773;-66
2023/04/06 04:40:43;;;;;;;5.20;4.73;;;;;18.30;100591.00;;;;2098994;28;20220;-67
2023/04/06 04:41:43;;;;;;;7.67;4.83;;;;;18.30;100593.00;;;;2095024;28;20221;-66
2023/04/06 04:42:44;;;;;;;4.97;4.47;;;;;18.30;100589.00;;;;2097117;28;20749;-66
2023/04/06 04:43:45;;;;;;;5.22;4.72;;;;;18.30;100598.00;;;;2095070;28;20211;-66
2023/04/06 04:44:45;;;;;;;5.53;4.87;;;;;18.30;100589.00;;;;2094717;28;20592;-66
2023/04/06 04:45:46;;;;;;;5.47;4.97;;;;;18.30;100589.00;;;;2096080;28;20709;-67
2023/04/06 04:46:46;;;;;;;4.80;4.40;;;;;18.30;100590.00;;;;2094771;28;20219;-66
2023/04/06 04:47:46;;;;;;;5.20;4.70;;;;;18.30;100588.00;;;;2095872;28;20689;-66
2023/04/06 04:48:47;;;;;;;5.67;5.00;;;;;18.30;100586.00;;;;2095347;28;20222;-65
2023/04/06 04:49:47;;;;;;;6.00;5.40;;;;;18.20;100579.00;;;;2096169;28;20230;-66
2023/04/06 04:50:47;;;;;;;4.80;4.40;;;;;18.30;100580.00;;;;2096047;28;20214;-66
2023/04/06 04:51:47;;;;;;;5.40;4.90;;;;;18.30;100582.00;;;;2094486;28;20777;-66
2023/04/06 04:52:48;;;;;;;5.60;5.10;;;;;18.30;100590.00;;;;2096057;28;20590;-67
2023/04/06 04:53:48;;;;;;;5.33;4.17;;;;;18.20;100587.00;;;;2095278;28;20702;-67
2023/04/06 04:54:48;;;;;;;7.83;5.00;;;;;18.20;100574.00;;;;2096050;28;20707;-67
2023/04/06 04:55:49;;;;;;;4.80;4.30;;;;;18.30;100589.00;;;;2095381;28;20242;-72
2023/04/06 04:56:50;;;;;;;6.43;4.90;;;;;18.30;100586.00;;;;2100484;28;20219;-65
2023/04/06 04:57:50;;;;;;;6.73;5.00;;;;;18.30;100582.00;;;;2095696;28;20215;-65